sensor_id;sensor_type;location;lat;lon;timestamp;pressure;altitude;pressure_sealevel;temperature;humidity
47983;BME280;33751;50.816;-1.214;2022-09-09T00:02:01;100249.73;;;16.43;100.00
47983;BME280;33751;50.816;-1.214;2022-09-09T00:04:33;100251.89;;;16.38;100.00
47983;BME280;33751;50.816;-1.214;2022-09-09T00:07:04;100254.35;;;16.52;100.00
47983;BME280;33751;50.816;-1.214;2022-09-09T00:09:39;100255.91;;;16.34;100.00
47983;BME280;33751;50.816;-1.214;2022-09-09T00:12:11;100255.16;;;16.17;100.00
47983;BME280;33751;50.816;-1.214;2022-09-09T00:14:46;100255.73;;;16.24;100.00
47983;BME280;33751;50.816;-1.214;2022-09-09T00:17:23;100254.51;;;16.25;100.00
47983;BME280;33751;50.816;-1.214;2022-09-09T00:20:00;100259.37;;;16.38;100.00
47983;BME280;33751;50.816;-1.214;2022-09-09T00:22:29;100258.31;;;16.25;100.00
47983;BME280;33751;50.816;-1.214;2022-09-09T00:25:03;100259.96;;;16.73;100.00
47983;BME280;33751;50.816;-1.214;2022-09-09T00:27:38;100262.09;;;15.88;100.00
47983;BME280;33751;50.816;-1.214;2022-09-09T00:30:16;100258.00;;;16.43;100.00
47983;BME280;33751;50.816;-1.214;2022-09-09T00:32:44;100260.78;;;16.21;100.00
47983;BME280;33751;50.816;-1.214;2022-09-09T00:35:17;100262.11;;;16.08;100.00
47983;BME280;33751;50.816;-1.214;2022-09-09T00:37:46;100258.48;;;16.35;100.00
47983;BME280;33751;50.816;-1.214;2022-09-09T00:40:23;100261.49;;;16.25;100.00
47983;BME280;33751;50.816;-1.214;2022-09-09T00:42:59;100259.81;;;16.15;100.00
47983;BME280;33751;50.816;-1.214;2022-09-09T00:45:52;100262.82;;;16.16;100.00
47983;BME280;33751;50.816;-1.214;2022-09-09T00:48:27;100259.53;;;16.44;100.00
47983;BME280;33751;50.816;-1.214;2022-09-09T00:51:02;100258.22;;;15.98;100.00
47983;BME280;33751;50.816;-1.214;2022-09-09T00:53:37;100262.96;;;16.06;100.00
47983;BME280;33751;50.816;-1.214;2022-09-09T00:56:12;100263.21;;;15.81;100.00
47983;BME280;33751;50.816;-1.214;2022-09-09T00:58:42;100264.11;;;16.00;100.00
47983;BME280;33751;50.816;-1.214;2022-09-09T01:01:11;100264.74;;;16.12;100.00
47983;BME280;33751;50.816;-1.214;2022-09-09T01:03:40;100267.15;;;16.17;100.00
47983;BME280;33751;50.816;-1.214;2022-09-09T01:06:15;100270.43;;;15.97;100.00
47983;BME280;33751;50.816;-1.214;2022-09-09T01:08:58;100267.46;;;16.53;100.00
47983;BME280;33751;50.816;-1.214;2022-09-09T01:11:33;100270.97;;;16.07;100.00
47983;BME280;33751;50.816;-1.214;2022-09-09T01:14:14;100271.59;;;16.16;100.00
47983;BME280;33751;50.816;-1.214;2022-09-09T01:16:46;100274.21;;;15.86;100.00
47983;BME280;33751;50.816;-1.214;2022-09-09T01:19:22;100271.90;;;16.33;100.00
47983;BME280;33751;50.816;-1.214;2022-09-09T01:21:59;100277.27;;;16.15;100.00
47983;BME280;33751;50.816;-1.214;2022-09-09T01:24:35;100273.84;;;16.13;100.00
47983;BME280;33751;50.816;-1.214;2022-09-09T01:27:06;100279.72;;;16.40;100.00
47983;BME280;33751;50.816;-1.214;2022-09-09T01:29:34;100277.71;;;16.19;100.00
47983;BME280;33751;50.816;-1.214;2022-09-09T01:32:39;100276.19;;;15.97;100.00
47983;BME280;33751;50.816;-1.214;2022-09-09T01:35:09;100280.69;;;16.37;100.00
47983;BME280;33751;50.816;-1.214;2022-09-09T01:37:38;100286.50;;;16.23;100.00
47983;BME280;33751;50.816;-1.214;2022-09-09T01:40:06;100289.95;;;16.23;100.00
47983;BME280;33751;50.816;-1.214;2022-09-09T01:42:33;100290.25;;;16.35;100.00
47983;BME280;33751;50.816;-1.214;2022-09-09T01:45:01;100291.35;;;16.14;100.00
47983;BME280;33751;50.816;-1.214;2022-09-09T01:47:27;100298.83;;;16.09;100.00
47983;BME280;33751;50.816;-1.214;2022-09-09T01:49:54;100298.63;;;16.57;100.00
47983;BME280;33751;50.816;-1.214;2022-09-09T01:52:20;100298.75;;;16.08;100.00
47983;BME280;33751;50.816;-1.214;2022-09-09T01:54:47;100298.08;;;16.03;100.00
47983;BME280;33751;50.816;-1.214;2022-09-09T01:57:20;100299.00;;;16.22;100.00
47983;BME280;33751;50.816;-1.214;2022-09-09T01:59:58;100301.42;;;16.22;100.00
47983;BME280;33751;50.816;-1.214;2022-09-09T02:02:32;100301.31;;;15.98;100.00
47983;BME280;33751;50.816;-1.214;2022-09-09T02:05:06;100301.94;;;16.19;100.00
47983;BME280;33751;50.816;-1.214;2022-09-09T02:07:39;100304.80;;;16.00;100.00
47983;BME280;33751;50.816;-1.214;2022-09-09T02:10:11;100308.98;;;16.09;100.00
47983;BME280;33751;50.816;-1.214;2022-09-09T02:12:41;100308.31;;;16.16;100.00
47983;BME280;33751;50.816;-1.214;2022-09-09T02:15:16;100312.24;;;16.37;100.00
47983;BME280;33751;50.816;-1.214;2022-09-09T02:17:46;100312.39;;;16.00;100.00
47983;BME280;33751;50.816;-1.214;2022-09-09T02:20:15;100317.68;;;16.21;100.00
47983;BME280;33751;50.816;-1.214;2022-09-09T02:22:44;100317.60;;;15.91;100.00
47983;BME280;33751;50.816;-1.214;2022-09-09T02:25:15;100320.30;;;16.17;100.00
47983;BME280;33751;50.816;-1.214;2022-09-09T02:27:45;100322.15;;;15.90;100.00
47983;BME280;33751;50.816;-1.214;2022-09-09T02:30:14;100319.64;;;16.64;100.00
47983;BME280;33751;50.816;-1.214;2022-09-09T02:32:42;100326.97;;;16.16;100.00
47983;BME280;33751;50.816;-1.214;2022-09-09T02:35:12;100332.82;;;16.30;100.00
47983;BME280;33751;50.816;-1.214;2022-09-09T02:37:42;100332.39;;;16.24;100.00
47983;BME280;33751;50.816;-1.214;2022-09-09T02:40:11;100330.85;;;15.91;100.00
47983;BME280;33751;50.816;-1.214;2022-09-09T02:42:39;100335.76;;;15.88;100.00
47983;BME280;33751;50.816;-1.214;2022-09-09T02:45:07;100337.00;;;15.92;100.00
47983;BME280;33751;50.816;-1.214;2022-09-09T02:47:35;100335.82;;;16.48;100.00
47983;BME280;33751;50.816;-1.214;2022-09-09T02:50:12;100339.22;;;16.24;100.00
47983;BME280;33751;50.816;-1.214;2022-09-09T02:52:49;100338.83;;;16.21;100.00
47983;BME280;33751;50.816;-1.214;2022-09-09T02:55:23;100339.85;;;16.00;100.00
47983;BME280;33751;50.816;-1.214;2022-09-09T02:57:55;100339.94;;;16.44;100.00
47983;BME280;33751;50.816;-1.214;2022-09-09T03:00:24;100336.48;;;16.15;100.00
47983;BME280;33751;50.816;-1.214;2022-09-09T03:02:52;100341.68;;;16.20;100.00
47983;BME280;33751;50.816;-1.214;2022-09-09T03:05:19;100341.62;;;16.16;100.00
47983;BME280;33751;50.816;-1.214;2022-09-09T03:07:45;100344.83;;;15.84;100.00
47983;BME280;33751;50.816;-1.214;2022-09-09T03:10:13;100351.69;;;15.76;100.00
47983;BME280;33751;50.816;-1.214;2022-09-09T03:12:40;100349.71;;;16.40;100.00
47983;BME280;33751;50.816;-1.214;2022-09-09T03:15:08;100350.09;;;15.98;100.00
47983;BME280;33751;50.816;-1.214;2022-09-09T03:17:35;100346.70;;;16.06;100.00
47983;BME280;33751;50.816;-1.214;2022-09-09T03:20:02;100343.92;;;15.89;100.00
47983;BME280;33751;50.816;-1.214;2022-09-09T03:22:29;100349.59;;;16.17;100.00
47983;BME280;33751;50.816;-1.214;2022-09-09T03:24:56;100352.43;;;16.00;100.00
47983;BME280;33751;50.816;-1.214;2022-09-09T03:27:22;100354.38;;;15.77;100.00
47983;BME280;33751;50.816;-1.214;2022-09-09T03:29:49;100353.73;;;16.05;100.00
47983;BME280;33751;50.816;-1.214;2022-09-09T03:32:15;100351.55;;;15.94;100.00
47983;BME280;33751;50.816;-1.214;2022-09-09T03:34:43;100355.43;;;15.88;100.00
47983;BME280;33751;50.816;-1.214;2022-09-09T03:37:10;100360.34;;;16.06;100.00
47983;BME280;33751;50.816;-1.214;2022-09-09T03:39:37;100364.10;;;16.01;100.00
47983;BME280;33751;50.816;-1.214;2022-09-09T03:42:04;100364.17;;;16.18;100.00
47983;BME280;33751;50.816;-1.214;2022-09-09T03:44:30;100368.65;;;16.02;100.00
47983;BME280;33751;50.816;-1.214;2022-09-09T03:46:57;100369.31;;;16.09;100.00
47983;BME280;33751;50.816;-1.214;2022-09-09T03:49:24;100376.07;;;16.11;100.00
47983;BME280;33751;50.816;-1.214;2022-09-09T03:51:50;100374.65;;;15.70;100.00
47983;BME280;33751;50.816;-1.214;2022-09-09T03:54:17;100377.48;;;16.26;100.00
47983;BME280;33751;50.816;-1.214;2022-09-09T03:56:44;100379.45;;;15.91;100.00
47983;BME280;33751;50.816;-1.214;2022-09-09T03:59:11;100386.03;;;16.11;100.00
47983;BME280;33751;50.816;-1.214;2022-09-09T04:01:38;100388.45;;;16.01;100.00
47983;BME280;33751;50.816;-1.214;2022-09-09T04:04:04;100385.51;;;15.79;100.00
47983;BME280;33751;50.816;-1.214;2022-09-09T04:06:31;100386.12;;;15.96;100.00
47983;BME280;33751;50.816;-1.214;2022-09-09T04:08:57;100388.15;;;15.68;100.00
47983;BME280;33751;50.816;-1.214;2022-09-09T04:11:24;100389.84;;;16.03;100.00
47983;BME280;33751;50.816;-1.214;2022-09-09T04:13:51;100389.80;;;15.81;100.00
47983;BME280;33751;50.816;-1.214;2022-09-09T04:16:17;100389.60;;;15.91;100.00
47983;BME280;33751;50.816;-1.214;2022-09-09T04:18:45;100391.20;;;15.97;100.00
47983;BME280;33751;50.816;-1.214;2022-09-09T04:21:12;100395.76;;;16.33;100.00
47983;BME280;33751;50.816;-1.214;2022-09-09T04:23:39;100392.53;;;16.06;100.00
47983;BME280;33751;50.816;-1.214;2022-09-09T04:26:07;100393.75;;;15.78;100.00
47983;BME280;33751;50.816;-1.214;2022-09-09T04:28:36;100400.08;;;16.04;100.00
47983;BME280;33751;50.816;-1.214;2022-09-09T04:31:05;100402.13;;;15.91;100.00
47983;BME280;33751;50.816;-1.214;2022-09-09T04:33:32;100403.27;;;15.93;100.00
47983;BME280;33751;50.816;-1.214;2022-09-09T04:35:59;100410.41;;;16.17;100.00
47983;BME280;33751;50.816;-1.214;2022-09-09T04:38:26;100407.48;;;15.85;100.00
47983;BME280;33751;50.816;-1.214;2022-09-09T04:40:53;100412.60;;;16.19;100.00
47983;BME280;33751;50.816;-1.214;2022-09-09T04:43:20;100415.84;;;15.96;100.00
47983;BME280;33751;50.816;-1.214;2022-09-09T04:45:49;100421.33;;;16.04;100.00
47983;BME280;33751;50.816;-1.214;2022-09-09T04:48:17;100422.23;;;15.77;100.00
47983;BME280;33751;50.816;-1.214;2022-09-09T04:50:53;100417.83;;;16.16;100.00
47983;BME280;33751;50.816;-1.214;2022-09-09T04:53:20;100424.85;;;15.82;100.00
47983;BME280;33751;50.816;-1.214;2022-09-09T04:55:48;100426.04;;;15.72;100.00
47983;BME280;33751;50.816;-1.214;2022-09-09T04:58:15;100426.32;;;15.84;100.00
47983;BME280;33751;50.816;-1.214;2022-09-09T05:00:41;100424.76;;;15.81;100.00
47983;BME280;33751;50.816;-1.214;2022-09-09T05:03:08;100428.41;;;15.74;100.00
47983;BME280;33751;50.816;-1.214;2022-09-09T05:05:35;100429.43;;;15.61;100.00
47983;BME280;33751;50.816;-1.214;2022-09-09T05:08:03;100432.28;;;16.11;100.00
47983;BME280;33751;50.816;-1.214;2022-09-09T05:10:31;100440.51;;;15.63;100.00
47983;BME280;33751;50.816;-1.214;2022-09-09T05:12:58;100442.04;;;15.92;100.00
47983;BME280;33751;50.816;-1.214;2022-09-09T05:15:25;100442.75;;;15.92;100.00
47983;BME280;33751;50.816;-1.214;2022-09-09T05:17:52;100445.90;;;15.91;100.00
47983;BME280;33751;50.816;-1.214;2022-09-09T05:20:22;100444.84;;;15.94;100.00
47983;BME280;33751;50.816;-1.214;2022-09-09T05:22:52;100454.63;;;16.14;100.00
47983;BME280;33751;50.816;-1.214;2022-09-09T05:25:19;100459.75;;;15.55;100.00
47983;BME280;33751;50.816;-1.214;2022-09-09T05:27:47;100463.36;;;15.80;100.00
47983;BME280;33751;50.816;-1.214;2022-09-09T05:30:13;100465.85;;;16.05;100.00
47983;BME280;33751;50.816;-1.214;2022-09-09T05:32:40;100466.29;;;15.52;100.00
47983;BME280;33751;50.816;-1.214;2022-09-09T05:35:07;100468.00;;;16.14;100.00
47983;BME280;33751;50.816;-1.214;2022-09-09T05:37:34;100465.85;;;15.66;100.00
47983;BME280;33751;50.816;-1.214;2022-09-09T05:40:01;100462.96;;;15.54;100.00
47983;BME280;33751;50.816;-1.214;2022-09-09T05:42:30;100471.95;;;16.00;100.00
47983;BME280;33751;50.816;-1.214;2022-09-09T05:44:57;100467.81;;;16.07;100.00
47983;BME280;33751;50.816;-1.214;2022-09-09T05:47:24;100467.31;;;15.63;100.00
47983;BME280;33751;50.816;-1.214;2022-09-09T05:49:51;100472.34;;;16.12;100.00
47983;BME280;33751;50.816;-1.214;2022-09-09T05:52:17;100471.37;;;16.05;100.00
47983;BME280;33751;50.816;-1.214;2022-09-09T05:54:45;100469.99;;;16.05;100.00
47983;BME280;33751;50.816;-1.214;2022-09-09T05:57:11;100472.36;;;16.02;100.00
47983;BME280;33751;50.816;-1.214;2022-09-09T05:59:38;100474.39;;;15.89;100.00
47983;BME280;33751;50.816;-1.214;2022-09-09T06:02:04;100478.14;;;15.80;100.00
47983;BME280;33751;50.816;-1.214;2022-09-09T06:04:31;100479.41;;;15.92;100.00
47983;BME280;33751;50.816;-1.214;2022-09-09T06:06:58;100483.34;;;15.98;100.00
47983;BME280;33751;50.816;-1.214;2022-09-09T06:09:24;100484.30;;;15.75;100.00
47983;BME280;33751;50.816;-1.214;2022-09-09T06:11:51;100484.23;;;15.98;100.00
47983;BME280;33751;50.816;-1.214;2022-09-09T06:14:18;100485.12;;;15.82;100.00
47983;BME280;33751;50.816;-1.214;2022-09-09T06:16:44;100487.51;;;15.95;100.00
47983;BME280;33751;50.816;-1.214;2022-09-09T06:19:12;100490.73;;;15.74;100.00
47983;BME280;33751;50.816;-1.214;2022-09-09T06:21:38;100490.91;;;15.92;100.00
47983;BME280;33751;50.816;-1.214;2022-09-09T06:24:05;100492.83;;;15.96;100.00
47983;BME280;33751;50.816;-1.214;2022-09-09T06:26:34;100497.09;;;15.96;100.00
47983;BME280;33751;50.816;-1.214;2022-09-09T06:29:02;100502.28;;;16.00;100.00
47983;BME280;33751;50.816;-1.214;2022-09-09T06:31:31;100508.48;;;16.01;100.00
47983;BME280;33751;50.816;-1.214;2022-09-09T06:33:59;100516.03;;;15.98;100.00
47983;BME280;33751;50.816;-1.214;2022-09-09T06:36:27;100519.23;;;15.87;100.00
47983;BME280;33751;50.816;-1.214;2022-09-09T06:38:55;100518.55;;;16.16;100.00
47983;BME280;33751;50.816;-1.214;2022-09-09T06:41:24;100524.52;;;15.83;100.00
47983;BME280;33751;50.816;-1.214;2022-09-09T06:43:51;100523.89;;;16.29;100.00
47983;BME280;33751;50.816;-1.214;2022-09-09T06:46:19;100527.45;;;16.38;100.00
47983;BME280;33751;50.816;-1.214;2022-09-09T06:48:47;100529.75;;;16.01;100.00
47983;BME280;33751;50.816;-1.214;2022-09-09T06:51:16;100532.43;;;16.06;100.00
47983;BME280;33751;50.816;-1.214;2022-09-09T06:53:45;100535.99;;;16.10;100.00
47983;BME280;33751;50.816;-1.214;2022-09-09T06:56:22;100541.82;;;16.13;100.00
47983;BME280;33751;50.816;-1.214;2022-09-09T06:58:51;100542.36;;;16.40;100.00
47983;BME280;33751;50.816;-1.214;2022-09-09T07:01:20;100550.45;;;16.30;100.00
47983;BME280;33751;50.816;-1.214;2022-09-09T07:03:48;100550.37;;;16.18;100.00
47983;BME280;33751;50.816;-1.214;2022-09-09T07:06:17;100552.96;;;16.06;100.00
47983;BME280;33751;50.816;-1.214;2022-09-09T07:08:49;100554.55;;;16.60;100.00
47983;BME280;33751;50.816;-1.214;2022-09-09T07:11:18;100559.87;;;16.28;100.00
47983;BME280;33751;50.816;-1.214;2022-09-09T07:13:46;100565.55;;;16.24;100.00
47983;BME280;33751;50.816;-1.214;2022-09-09T07:16:17;100563.06;;;16.32;100.00
47983;BME280;33751;50.816;-1.214;2022-09-09T07:18:45;100569.14;;;16.64;100.00
47983;BME280;33751;50.816;-1.214;2022-09-09T07:21:12;100574.28;;;16.75;100.00
47983;BME280;33751;50.816;-1.214;2022-09-09T07:23:40;100574.16;;;16.47;100.00
47983;BME280;33751;50.816;-1.214;2022-09-09T07:26:09;100583.59;;;16.36;100.00
47983;BME280;33751;50.816;-1.214;2022-09-09T07:28:37;100587.48;;;16.51;100.00
47983;BME280;33751;50.816;-1.214;2022-09-09T07:31:06;100590.70;;;16.72;100.00
47983;BME280;33751;50.816;-1.214;2022-09-09T07:33:34;100595.91;;;16.81;100.00
47983;BME280;33751;50.816;-1.214;2022-09-09T07:36:05;100597.39;;;17.04;100.00
47983;BME280;33751;50.816;-1.214;2022-09-09T07:38:38;100602.26;;;16.66;100.00
47983;BME280;33751;50.816;-1.214;2022-09-09T07:41:07;100607.15;;;16.69;100.00
47983;BME280;33751;50.816;-1.214;2022-09-09T07:43:34;100606.39;;;16.79;100.00
47983;BME280;33751;50.816;-1.214;2022-09-09T07:46:01;100604.48;;;16.98;100.00
47983;BME280;33751;50.816;-1.214;2022-09-09T07:48:28;100608.10;;;16.98;100.00
47983;BME280;33751;50.816;-1.214;2022-09-09T07:51:06;100602.65;;;17.21;100.00
47983;BME280;33751;50.816;-1.214;2022-09-09T07:53:34;100605.56;;;16.46;100.00
47983;BME280;33751;50.816;-1.214;2022-09-09T07:56:05;100607.74;;;17.01;100.00
47983;BME280;33751;50.816;-1.214;2022-09-09T07:58:33;100610.62;;;16.81;100.00
47983;BME280;33751;50.816;-1.214;2022-09-09T08:01:00;100608.53;;;17.34;100.00
47983;BME280;33751;50.816;-1.214;2022-09-09T08:03:32;100609.83;;;17.48;100.00
47983;BME280;33751;50.816;-1.214;2022-09-09T08:06:01;100609.43;;;17.12;100.00
47983;BME280;33751;50.816;-1.214;2022-09-09T08:08:28;100615.60;;;17.13;100.00
47983;BME280;33751;50.816;-1.214;2022-09-09T08:11:02;100614.84;;;17.50;100.00
47983;BME280;33751;50.816;-1.214;2022-09-09T08:13:29;100614.48;;;18.10;100.00
47983;BME280;33751;50.816;-1.214;2022-09-09T08:16:04;100619.70;;;18.21;100.00
47983;BME280;33751;50.816;-1.214;2022-09-09T08:18:32;100620.79;;;18.31;100.00
47983;BME280;33751;50.816;-1.214;2022-09-09T08:21:05;100622.88;;;18.39;100.00
47983;BME280;33751;50.816;-1.214;2022-09-09T08:23:33;100620.24;;;18.74;100.00
47983;BME280;33751;50.816;-1.214;2022-09-09T08:26:04;100624.10;;;18.65;100.00
47983;BME280;33751;50.816;-1.214;2022-09-09T08:28:31;100623.27;;;18.98;100.00
47983;BME280;33751;50.816;-1.214;2022-09-09T08:31:06;100626.63;;;18.72;100.00
47983;BME280;33751;50.816;-1.214;2022-09-09T08:33:32;100626.48;;;18.84;100.00
47983;BME280;33751;50.816;-1.214;2022-09-09T08:36:00;100632.09;;;18.85;100.00
47983;BME280;33751;50.816;-1.214;2022-09-09T08:38:27;100634.82;;;18.90;100.00
47983;BME280;33751;50.816;-1.214;2022-09-09T08:40:58;100639.82;;;18.96;100.00
47983;BME280;33751;50.816;-1.214;2022-09-09T08:43:29;100638.40;;;19.13;100.00
47983;BME280;33751;50.816;-1.214;2022-09-09T08:46:03;100639.23;;;19.20;100.00
47983;BME280;33751;50.816;-1.214;2022-09-09T08:48:47;100643.56;;;19.04;100.00
47983;BME280;33751;50.816;-1.214;2022-09-09T08:51:18;100647.71;;;19.11;100.00
47983;BME280;33751;50.816;-1.214;2022-09-09T08:53:49;100649.28;;;19.19;100.00
47983;BME280;33751;50.816;-1.214;2022-09-09T08:56:21;100653.45;;;20.04;100.00
47983;BME280;33751;50.816;-1.214;2022-09-09T08:58:52;100649.54;;;19.87;100.00
47983;BME280;33751;50.816;-1.214;2022-09-09T09:01:35;100660.30;;;19.84;100.00
47983;BME280;33751;50.816;-1.214;2022-09-09T09:04:13;100654.42;;;19.43;100.00
47983;BME280;33751;50.816;-1.214;2022-09-09T09:06:50;100663.49;;;19.50;100.00
47983;BME280;33751;50.816;-1.214;2022-09-09T09:09:26;100665.29;;;19.94;100.00
47983;BME280;33751;50.816;-1.214;2022-09-09T09:11:58;100670.10;;;20.35;100.00
47983;BME280;33751;50.816;-1.214;2022-09-09T09:14:27;100673.84;;;20.26;100.00
47983;BME280;33751;50.816;-1.214;2022-09-09T09:16:58;100678.68;;;19.73;100.00
47983;BME280;33751;50.816;-1.214;2022-09-09T09:19:27;100682.22;;;19.38;100.00
47983;BME280;33751;50.816;-1.214;2022-09-09T09:22:02;100691.01;;;19.18;100.00
47983;BME280;33751;50.816;-1.214;2022-09-09T09:24:39;100690.52;;;19.47;100.00
47983;BME280;33751;50.816;-1.214;2022-09-09T09:27:12;100697.70;;;19.16;100.00
47983;BME280;33751;50.816;-1.214;2022-09-09T09:29:40;100699.80;;;19.17;100.00
47983;BME280;33751;50.816;-1.214;2022-09-09T09:32:10;100701.79;;;19.04;100.00
47983;BME280;33751;50.816;-1.214;2022-09-09T09:34:40;100709.52;;;19.11;100.00
47983;BME280;33751;50.816;-1.214;2022-09-09T09:37:14;100714.04;;;19.24;100.00
47983;BME280;33751;50.816;-1.214;2022-09-09T09:39:43;100715.37;;;19.49;100.00
47983;BME280;33751;50.816;-1.214;2022-09-09T09:42:12;100720.88;;;18.82;100.00
47983;BME280;33751;50.816;-1.214;2022-09-09T09:44:40;100722.10;;;19.30;100.00
47983;BME280;33751;50.816;-1.214;2022-09-09T09:47:10;100728.24;;;19.21;100.00
47983;BME280;33751;50.816;-1.214;2022-09-09T09:49:37;100723.59;;;19.22;100.00
47983;BME280;33751;50.816;-1.214;2022-09-09T09:52:05;100724.37;;;19.38;100.00
47983;BME280;33751;50.816;-1.214;2022-09-09T09:54:36;100732.02;;;19.79;100.00
47983;BME280;33751;50.816;-1.214;2022-09-09T09:57:12;100733.50;;;20.08;100.00
47983;BME280;33751;50.816;-1.214;2022-09-09T09:59:40;100731.19;;;19.92;100.00
47983;BME280;33751;50.816;-1.214;2022-09-09T10:02:18;100734.73;;;19.96;100.00
47983;BME280;33751;50.816;-1.214;2022-09-09T10:04:45;100733.89;;;20.08;100.00
47983;BME280;33751;50.816;-1.214;2022-09-09T10:07:15;100736.25;;;19.86;100.00
47983;BME280;33751;50.816;-1.214;2022-09-09T10:09:44;100735.81;;;19.67;100.00
47983;BME280;33751;50.816;-1.214;2022-09-09T10:12:21;100737.41;;;19.78;100.00
47983;BME280;33751;50.816;-1.214;2022-09-09T10:14:57;100738.76;;;19.38;100.00
47983;BME280;33751;50.816;-1.214;2022-09-09T10:17:36;100739.15;;;19.26;100.00
47983;BME280;33751;50.816;-1.214;2022-09-09T10:20:18;100735.64;;;19.59;100.00
47983;BME280;33751;50.816;-1.214;2022-09-09T10:22:50;100742.96;;;19.26;100.00
47983;BME280;33751;50.816;-1.214;2022-09-09T10:25:27;100739.69;;;19.49;100.00
47983;BME280;33751;50.816;-1.214;2022-09-09T10:28:16;100739.46;;;19.93;100.00
47983;BME280;33751;50.816;-1.214;2022-09-09T10:30:54;100735.76;;;19.98;100.00
47983;BME280;33751;50.816;-1.214;2022-09-09T10:33:32;100737.81;;;19.91;100.00
47983;BME280;33751;50.816;-1.214;2022-09-09T10:36:11;100744.28;;;19.87;100.00
47983;BME280;33751;50.816;-1.214;2022-09-09T10:38:41;100750.12;;;19.72;100.00
47983;BME280;33751;50.816;-1.214;2022-09-09T10:41:17;100746.62;;;19.73;100.00
47983;BME280;33751;50.816;-1.214;2022-09-09T10:43:56;100754.09;;;19.51;100.00
47983;BME280;33751;50.816;-1.214;2022-09-09T10:46:33;100752.89;;;19.49;100.00
47983;BME280;33751;50.816;-1.214;2022-09-09T10:49:12;100756.90;;;19.66;100.00
47983;BME280;33751;50.816;-1.214;2022-09-09T10:51:51;100759.96;;;19.46;100.00
47983;BME280;33751;50.816;-1.214;2022-09-09T10:54:31;100764.58;;;19.36;100.00
47983;BME280;33751;50.816;-1.214;2022-09-09T10:57:05;100765.17;;;19.58;100.00
47983;BME280;33751;50.816;-1.214;2022-09-09T10:59:38;100766.66;;;19.35;100.00
47983;BME280;33751;50.816;-1.214;2022-09-09T11:02:13;100769.97;;;19.93;100.00
47983;BME280;33751;50.816;-1.214;2022-09-09T11:04:47;100778.52;;;19.51;100.00
47983;BME280;33751;50.816;-1.214;2022-09-09T11:07:22;100779.32;;;19.08;100.00
47983;BME280;33751;50.816;-1.214;2022-09-09T11:09:58;100783.81;;;19.22;100.00
47983;BME280;33751;50.816;-1.214;2022-09-09T11:12:26;100783.03;;;18.95;100.00
47983;BME280;33751;50.816;-1.214;2022-09-09T11:15:01;100790.84;;;18.52;100.00
47983;BME280;33751;50.816;-1.214;2022-09-09T11:17:39;100792.93;;;18.35;100.00
47983;BME280;33751;50.816;-1.214;2022-09-09T11:20:12;100797.37;;;18.69;100.00
47983;BME280;33751;50.816;-1.214;2022-09-09T11:22:44;100797.80;;;18.74;100.00
47983;BME280;33751;50.816;-1.214;2022-09-09T11:25:17;100797.39;;;18.86;100.00
47983;BME280;33751;50.816;-1.214;2022-09-09T11:27:58;100799.49;;;19.04;100.00
47983;BME280;33751;50.816;-1.214;2022-09-09T11:30:36;100799.75;;;19.35;100.00
47983;BME280;33751;50.816;-1.214;2022-09-09T11:33:23;100800.91;;;19.34;100.00
47983;BME280;33751;50.816;-1.214;2022-09-09T11:36:06;100800.80;;;19.51;100.00
47983;BME280;33751;50.816;-1.214;2022-09-09T11:38:44;100801.84;;;19.45;100.00
47983;BME280;33751;50.816;-1.214;2022-09-09T11:41:12;100794.38;;;19.91;100.00
47983;BME280;33751;50.816;-1.214;2022-09-09T11:43:41;100795.28;;;19.90;100.00
47983;BME280;33751;50.816;-1.214;2022-09-09T11:46:09;100794.70;;;19.83;100.00
47983;BME280;33751;50.816;-1.214;2022-09-09T11:48:38;100795.63;;;20.46;100.00
47983;BME280;33751;50.816;-1.214;2022-09-09T11:51:07;100795.45;;;20.30;100.00
47983;BME280;33751;50.816;-1.214;2022-09-09T11:53:35;100796.14;;;19.86;100.00
47983;BME280;33751;50.816;-1.214;2022-09-09T11:56:09;100798.72;;;20.19;100.00
47983;BME280;33751;50.816;-1.214;2022-09-09T11:58:40;100801.40;;;19.57;100.00
47983;BME280;33751;50.816;-1.214;2022-09-09T12:01:27;100804.70;;;20.16;100.00
47983;BME280;33751;50.816;-1.214;2022-09-09T12:04:10;100802.32;;;20.43;100.00
47983;BME280;33751;50.816;-1.214;2022-09-09T12:06:43;100799.84;;;20.18;100.00
47983;BME280;33751;50.816;-1.214;2022-09-09T12:09:18;100799.10;;;20.99;100.00
47983;BME280;33751;50.816;-1.214;2022-09-09T12:11:46;100799.07;;;21.07;100.00
47983;BME280;33751;50.816;-1.214;2022-09-09T12:14:21;100806.72;;;21.48;100.00
47983;BME280;33751;50.816;-1.214;2022-09-09T12:16:49;100801.01;;;21.81;100.00
47983;BME280;33751;50.816;-1.214;2022-09-09T12:19:19;100801.69;;;21.84;100.00
47983;BME280;33751;50.816;-1.214;2022-09-09T12:21:54;100805.45;;;21.64;100.00
47983;BME280;33751;50.816;-1.214;2022-09-09T12:24:30;100801.19;;;21.70;100.00
47983;BME280;33751;50.816;-1.214;2022-09-09T12:27:03;100801.18;;;21.78;100.00
47983;BME280;33751;50.816;-1.214;2022-09-09T12:29:41;100807.27;;;21.36;100.00
47983;BME280;33751;50.816;-1.214;2022-09-09T12:32:16;100804.56;;;21.47;100.00
47983;BME280;33751;50.816;-1.214;2022-09-09T12:34:47;100801.76;;;21.66;100.00
47983;BME280;33751;50.816;-1.214;2022-09-09T12:37:23;100808.72;;;21.54;100.00
47983;BME280;33751;50.816;-1.214;2022-09-09T12:39:55;100800.49;;;22.07;100.00
47983;BME280;33751;50.816;-1.214;2022-09-09T12:42:23;100802.36;;;22.50;100.00
47983;BME280;33751;50.816;-1.214;2022-09-09T12:44:52;100801.25;;;22.75;100.00
47983;BME280;33751;50.816;-1.214;2022-09-09T12:47:24;100800.87;;;22.55;100.00
47983;BME280;33751;50.816;-1.214;2022-09-09T12:49:52;100807.14;;;22.61;100.00